Lander, WY

10:53 AM MDT on July 29, 2014 (GMT -0600)
South Pass (KFWZ) Elev 8491 ft | 42.51 °N, 108.78 °W | Change Station

Current weather conditions updated 18 minutes ago

Light Rain
Light Rain
54 °F
Feels Like 54 °F
N
15
Wind Variable Wind from North
Gusts 20 mph

Today is forecast to be Much Cooler than yesterday. Showers and thunderstorms.

Today
High -- | Low -- °F
--% Chance of Precip.
Yesterday
High -- | Low -- °F
Precip. -- in
6:03 AM 8:38 PM
Waxing Crescent, 7% visible
Pressure 30.42 in
Visibility 10.0 miles
Clouds Scattered Clouds 1400 ft
Scattered Clouds 3600 ft
Overcast 5500 ft
Dew Point 48 °F
Humidity 82%
Rainfall 0.00 in
Snow Depth Not available.
UV 2 out of 12
Pollen 3.70 out of 12
Air Quality Not available.
Flu Activity Not available.
METAR KFWZ 291635Z AUTO 36013G17KT 10SM -RA SCT014 SCT036 OVC055 12/09 A3042 RMK AO2

More Conditions Fewer Conditions

Pressure 30.42 in
Visibility 10.0 miles
Clouds Scattered Clouds 1400 ft
Scattered Clouds 3600 ft
Overcast 5500 ft
Dew Point 48 °F
Humidity 82%
Rainfall 0.00 in
Snow Depth Not available.
UV 2 out of 12
Pollen 3.70 out of 12
Air Quality Not available.
Flu Activity Not available.
METAR KFWZ 291635Z AUTO 36013G17KT 10SM -RA SCT014 SCT036 OVC055 12/09 A3042 RMK AO2

More Conditions Fewer Conditions

10-Day Weather Forecast

Almanac

Astronomy

Jul. 29, 2014 Rise Set
Actual Time 6:03 AM MDT 8:38 PM MDT
Civil Twilight 5:30 AM MDT 9:10 PM MDT
Nautical Twilight 4:50 AM MDT 9:51 PM MDT
Astronomical Twilight 4:04 AM MDT 10:36 PM MDT
Moon 8:47 AM MDT 9:46 PM MDT
Length of Visible Light 15h 40m
Length of Day
14h 35m
Tomorrow will be 2m 9s shorter.
Waxing Crescent, 7% of the Moon is Illuminated
Today
Waxing Crescent
Aug 3
First Quarter
Aug 10
Full
Aug 17
Last Quarter
Aug 25
New

Today's Extremes

State Highs State Lows

Community

WunderPhotos

Upload Photos

1,738,783 photos uploaded!

Nearby

Snow Depth

Station Depth Elevation
Big Sandy Opening 1 in 9080 ft
New Fork Lake 0 in 8340 ft
Gunsight Pass 1 in 9820 ft
Kendall R.S. 1 in 7740 ft
Loomis Park 0 in 8240 ft

Earthquake Activity

City Distance Mag. Time & Date
No recent earthquake activity has been reported nearby.
Minimum magnitude displayed is 2.5.

Coastal Water Temperatures

Place Temperature
No Stations Reporting

Nearby Weather Stations

Station Location Temp. Dew Point Humidity Wind Precip. Elev Updated Type
HADS LITTLE WIND RIVER NEAR RIVERTON WY, Saint Stephens, WY 67 °F - - North  at  - 0.00 in / hr 4900 ft 9:15 AM MDT MADIS
Riverton, WY 59.3 °F 57 °F 91% North  at  2.0 mph - / hr 5405 ft 10:52 AM MDT Normal
Logan Park, Riverton, WY 61.0 °F 58 °F 90% NNW  at  2.0 mph 0.12 in / hr 4984 ft 10:53 AM MDT Rapid Fire
HADS SOUTH PASS CITY 3 NNE WY, Lander, WY 54 °F - - North  at  - 0.00 in / hr 8540 ft 10:00 AM MDT MADIS

Show More Stations Show Fewer Stations